createdAt,value
2023-01-21T00:00:06.141Z,-1
2023-01-21T00:01:05.758Z,-1
2023-01-21T00:02:06.173Z,-1
2023-01-21T00:03:06.629Z,-0.9
2023-01-21T00:04:06.470Z,-0.9
2023-01-21T00:05:06.244Z,-0.9
2023-01-21T00:06:06.530Z,-1
2023-01-21T00:07:05.820Z,-1
2023-01-21T00:08:06.997Z,-0.9
2023-01-21T00:09:06.178Z,-0.9
2023-01-21T00:10:06.636Z,-1
2023-01-21T00:11:06.025Z,-1
2023-01-21T00:12:06.596Z,-1
2023-01-21T00:13:05.730Z,-1
2023-01-21T00:14:06.043Z,-0.9
2023-01-21T00:15:06.499Z,-0.9
2023-01-21T00:16:06.058Z,-0.9
2023-01-21T00:17:06.309Z,-1
2023-01-21T00:18:06.511Z,-0.9
2023-01-21T00:19:05.993Z,-1
2023-01-21T00:20:06.571Z,-1
2023-01-21T00:21:06.146Z,-1
2023-01-21T00:22:05.519Z,-0.9
2023-01-21T00:23:06.206Z,-1
2023-01-21T00:24:06.525Z,-1
2023-01-21T00:25:06.019Z,-1
2023-01-21T00:26:06.578Z,-1
2023-01-21T00:27:05.943Z,-0.9
2023-01-21T00:28:06.434Z,-1
2023-01-21T00:29:05.915Z,-1
2023-01-21T00:30:06.560Z,-2
2023-01-21T00:31:06.157Z,-1
2023-01-21T00:32:06.179Z,-1
2023-01-21T00:33:05.741Z,-1
2023-01-21T00:34:06.163Z,-1
2023-01-21T00:35:06.595Z,-1
2023-01-21T00:36:06.426Z,-1
2023-01-21T00:37:05.770Z,-1
2023-01-21T00:38:06.303Z,-1
2023-01-21T00:39:06.470Z,-1
2023-01-21T00:40:05.869Z,-1
2023-01-21T00:41:06.162Z,-0.9
2023-01-21T00:42:05.780Z,-2
2023-01-21T00:43:06.246Z,-1
2023-01-21T00:44:06.681Z,-1
2023-01-21T00:45:06.115Z,-1
2023-01-21T00:46:06.184Z,-2
2023-01-21T00:47:06.181Z,-1
2023-01-21T00:48:05.761Z,-1
2023-01-21T00:49:06.196Z,-1
2023-01-21T00:50:06.516Z,-1
2023-01-21T00:51:06.158Z,-2
2023-01-21T00:52:06.473Z,-2
2023-01-21T00:53:05.866Z,-1
2023-01-21T00:54:06.183Z,-1
2023-01-21T00:55:06.757Z,-2
2023-01-21T00:56:06.515Z,-1
2023-01-21T00:57:06.822Z,-1
2023-01-21T00:58:05.989Z,-1
2023-01-21T00:59:04.820Z,-1
2023-01-21T01:00:06.215Z,-1
2023-01-21T01:01:05.963Z,-1
2023-01-21T01:02:06.224Z,-1.1
2023-01-21T01:03:05.807Z,-1.1
2023-01-21T01:04:06.192Z,-1.1
2023-01-21T01:05:06.526Z,-1
2023-01-21T01:06:05.981Z,-1.1
2023-01-21T01:07:06.032Z,-2
2023-01-21T01:08:05.988Z,-1.1
2023-01-21T01:09:06.687Z,-1.1
2023-01-21T01:10:06.083Z,-1.1
2023-01-21T01:11:06.032Z,-1.1
2023-01-21T01:12:06.556Z,-1.1
2023-01-21T01:13:06.040Z,-1.1
2023-01-21T01:14:06.629Z,-1.1
2023-01-21T01:15:05.886Z,-1.1
2023-01-21T01:16:06.243Z,-1.1
2023-01-21T01:17:06.399Z,-2
2023-01-21T01:18:05.885Z,-2
2023-01-21T01:19:06.351Z,-1.1
2023-01-21T01:20:06.209Z,-1.1
2023-01-21T01:21:06.657Z,-1.1
2023-01-21T01:22:05.861Z,-1.1
2023-01-21T01:23:06.249Z,-2
2023-01-21T01:24:05.782Z,-1.1
2023-01-21T01:25:06.192Z,-1.1
2023-01-21T01:26:05.620Z,-1.1
2023-01-21T01:27:06.626Z,-1.1
2023-01-21T01:28:06.095Z,-1.1
2023-01-21T01:29:06.434Z,-1.1
2023-01-21T01:30:05.905Z,-1.1
2023-01-21T01:31:06.371Z,-1.1
2023-01-21T01:32:06.070Z,-1.2
2023-01-21T01:33:06.707Z,-2
2023-01-21T01:34:06.115Z,-1.1
2023-01-21T01:35:06.582Z,-1.2
2023-01-21T01:36:05.992Z,-2
2023-01-21T01:37:06.545Z,-1.1
2023-01-21T01:38:05.883Z,-1.2
2023-01-21T01:39:06.350Z,-1.2
2023-01-21T01:40:05.850Z,-1.2
2023-01-21T01:41:06.290Z,-1.1
2023-01-21T01:42:05.752Z,-1.1
2023-01-21T01:43:06.184Z,-1.1
2023-01-21T01:44:06.726Z,-1.1
2023-01-21T01:45:06.084Z,-2
2023-01-21T01:46:06.101Z,-1.1
2023-01-21T01:47:06.403Z,-1.1
2023-01-21T01:48:05.742Z,-1.1
2023-01-21T01:49:06.223Z,-1.1
2023-01-21T01:50:06.559Z,-2
2023-01-21T01:51:06.185Z,-1.1
2023-01-21T01:52:06.475Z,-1.1
2023-01-21T01:53:05.869Z,-1.1
2023-01-21T01:54:06.162Z,-1.1
2023-01-21T01:55:05.699Z,-1.1
2023-01-21T01:56:05.975Z,-1.1
2023-01-21T01:57:06.466Z,-1.1
2023-01-21T01:58:05.796Z,-1.1
2023-01-21T01:59:06.502Z,-1.1
2023-01-21T02:00:05.983Z,-1.1
2023-01-21T02:01:05.854Z,-1
2023-01-21T02:02:06.227Z,-1
2023-01-21T02:03:05.888Z,-1
2023-01-21T02:04:05.717Z,-1
2023-01-21T02:05:06.128Z,-1.1
2023-01-21T02:06:06.610Z,-1.1
2023-01-21T02:07:06.036Z,-1.1
2023-01-21T02:08:06.425Z,-2
2023-01-21T02:09:05.822Z,-1
2023-01-21T02:10:06.172Z,-1.1
2023-01-21T02:11:05.718Z,-1.1
2023-01-21T02:12:06.159Z,-1
2023-01-21T02:13:06.686Z,-1.1
2023-01-21T02:14:06.080Z,-1
2023-01-21T02:15:06.439Z,-1.1
2023-01-21T02:16:06.227Z,-1
2023-01-21T02:17:06.553Z,-1
2023-01-21T02:18:05.781Z,-1.1
2023-01-21T02:19:06.443Z,-1
2023-01-21T02:20:06.000Z,-2
2023-01-21T02:21:06.403Z,-1
2023-01-21T02:22:05.855Z,-1.1
2023-01-21T02:23:06.177Z,-1
2023-01-21T02:24:05.744Z,-1
2023-01-21T02:25:06.140Z,-1
2023-01-21T02:26:06.333Z,-1.1
2023-01-21T02:27:05.888Z,-2
2023-01-21T02:28:06.262Z,-2
2023-01-21T02:29:05.792Z,-2
2023-01-21T02:30:06.288Z,-1.1
2023-01-21T02:31:06.377Z,-1.1
2023-01-21T02:32:06.004Z,-2
2023-01-21T02:33:06.555Z,-1.1
2023-01-21T02:34:05.971Z,-1.1
2023-01-21T02:35:06.433Z,-1.1
2023-01-21T02:36:05.810Z,-1.1
2023-01-21T02:37:06.323Z,-2
2023-01-21T02:38:05.808Z,-1.1
2023-01-21T02:39:06.272Z,-1.1
2023-01-21T02:40:06.655Z,-1.1
2023-01-21T02:41:06.012Z,-1.1
2023-01-21T02:42:06.395Z,-1.1
2023-01-21T02:43:05.942Z,-1.1
2023-01-21T02:44:06.358Z,-1.1
2023-01-21T02:45:05.738Z,-1.2
2023-01-21T02:46:06.150Z,-1.2
2023-01-21T02:47:06.775Z,-1.2
2023-01-21T02:48:06.266Z,-1.1
2023-01-21T02:49:06.648Z,-1.1
2023-01-21T02:50:06.002Z,-1.1
2023-01-21T02:51:06.602Z,-1.1
2023-01-21T02:52:05.784Z,-1.1
2023-01-21T02:53:06.332Z,-1.2
2023-01-21T02:54:05.686Z,-1.2
2023-01-21T02:55:05.881Z,-1.2
2023-01-21T02:56:06.283Z,-1.2
2023-01-21T02:57:05.934Z,-1.2
2023-01-21T02:58:06.261Z,-1.2
2023-01-21T02:59:06.638Z,-1.2
2023-01-21T03:00:06.073Z,-1.2
2023-01-21T03:01:06.674Z,-1.2
2023-01-21T03:02:06.011Z,-1.2
2023-01-21T03:03:06.361Z,-1.2
2023-01-21T03:04:05.817Z,-1.2
2023-01-21T03:05:06.376Z,-1.2
2023-01-21T03:06:05.690Z,-1.2
2023-01-21T03:07:06.013Z,-2
2023-01-21T03:08:06.534Z,-1.2
2023-01-21T03:09:06.218Z,-1.2
2023-01-21T03:10:06.617Z,-1.2
2023-01-21T03:11:06.013Z,-1.2
2023-01-21T03:12:06.510Z,-1.2
2023-01-21T03:13:05.943Z,-1.2
2023-01-21T03:14:05.471Z,-2
2023-01-21T03:15:06.004Z,-1.3
2023-01-21T03:16:06.172Z,-1.3
2023-01-21T03:17:06.324Z,-1.3
2023-01-21T03:18:05.840Z,-1.3
2023-01-21T03:19:06.198Z,-2
2023-01-21T03:20:06.678Z,-1.3
2023-01-21T03:21:06.137Z,-1.3
2023-01-21T03:22:06.477Z,-1.3
2023-01-21T03:23:05.807Z,-1.3
2023-01-21T03:24:06.250Z,-1.3
2023-01-21T03:25:05.811Z,-1.4
2023-01-21T03:26:06.184Z,-1.4
2023-01-21T03:27:06.526Z,-1.4
2023-01-21T03:28:05.758Z,-1.4
2023-01-21T03:29:06.289Z,-2
2023-01-21T03:30:05.821Z,-2
2023-01-21T03:31:06.748Z,-1.4
2023-01-21T03:32:05.950Z,-1.4
2023-01-21T03:33:06.215Z,-1.4
2023-01-21T03:34:05.715Z,-1.4
2023-01-21T03:35:06.183Z,-1.4
2023-01-21T03:36:06.751Z,-1.4
2023-01-21T03:37:06.121Z,-1.4
2023-01-21T03:38:06.331Z,-1.5
2023-01-21T03:39:05.913Z,-1.5
2023-01-21T03:40:06.384Z,-1.4
2023-01-21T03:41:05.876Z,-1.5
2023-01-21T03:42:06.237Z,-2
2023-01-21T03:43:07.069Z,-2
2023-01-21T03:44:06.087Z,-2
2023-01-21T03:45:06.593Z,-1.5
2023-01-21T03:46:06.835Z,-1.5
2023-01-21T03:47:05.921Z,-1.5
2023-01-21T03:48:06.341Z,-1.5
2023-01-21T03:49:05.737Z,-2
2023-01-21T03:50:06.085Z,-2
2023-01-21T03:51:06.603Z,-1.6
2023-01-21T03:52:05.768Z,-1.6
2023-01-21T03:53:06.445Z,-2
2023-01-21T03:54:05.710Z,-2
2023-01-21T03:55:06.242Z,-1.6
2023-01-21T03:56:05.774Z,-1.6
2023-01-21T03:57:06.328Z,-2
2023-01-21T03:58:05.732Z,-1.6
2023-01-21T03:59:05.960Z,-1.6
2023-01-21T04:00:06.499Z,-1.6
2023-01-21T04:01:06.385Z,-1.6
2023-01-21T04:02:06.002Z,-1.6
2023-01-21T04:03:06.251Z,-1.6
2023-01-21T04:04:06.565Z,-1.6
2023-01-21T04:05:06.006Z,-1.6
2023-01-21T04:06:06.217Z,-2
2023-01-21T04:07:05.880Z,-1.6
2023-01-21T04:08:06.406Z,-1.6
2023-01-21T04:09:05.817Z,-1.6
2023-01-21T04:10:06.359Z,-1.6
2023-01-21T04:11:05.665Z,-1.6
2023-01-21T04:12:06.222Z,-1.7
2023-01-21T04:13:06.581Z,-1.7
2023-01-21T04:14:06.036Z,-1.7
2023-01-21T04:15:09.521Z,-1.7
2023-01-21T04:16:06.916Z,-1.7
2023-01-21T04:17:06.138Z,-1.7
2023-01-21T04:18:06.469Z,-1.7
2023-01-21T04:19:06.060Z,-1.7
2023-01-21T04:20:06.351Z,-1.7
2023-01-21T04:21:05.824Z,-1.7
2023-01-21T04:22:06.313Z,-1.7
2023-01-21T04:23:05.554Z,-1.8
2023-01-21T04:24:06.116Z,-1.7
2023-01-21T04:25:06.450Z,-1.7
2023-01-21T04:26:05.794Z,-1.8
2023-01-21T04:27:06.328Z,-1.8
2023-01-21T04:28:06.519Z,-1.8
2023-01-21T04:29:06.149Z,-2
2023-01-21T04:30:06.739Z,-1.8
2023-01-21T04:31:05.905Z,-2
2023-01-21T04:32:06.237Z,-1.8
2023-01-21T04:33:06.560Z,-1.8
2023-01-21T04:34:06.112Z,-1.8
2023-01-21T04:35:06.760Z,-1.8
2023-01-21T04:36:06.076Z,-1.8
2023-01-21T04:37:06.418Z,-1.8
2023-01-21T04:38:05.061Z,-1.8
2023-01-21T04:39:06.356Z,-1.8
2023-01-21T04:40:05.777Z,-1.8
2023-01-21T04:41:06.246Z,-2
2023-01-21T04:42:06.588Z,-1.8
2023-01-21T04:43:06.046Z,-2
2023-01-21T04:44:06.411Z,-1.8
2023-01-21T04:45:06.048Z,-1.8
2023-01-21T04:46:06.143Z,-1.8
2023-01-21T04:47:06.159Z,-1.8
2023-01-21T04:48:05.758Z,-1.8
2023-01-21T04:49:06.072Z,-1.8
2023-01-21T04:50:06.709Z,-1.8
2023-01-21T04:51:06.262Z,-1.8
2023-01-21T04:52:06.399Z,-1.8
2023-01-21T04:53:05.770Z,-2
2023-01-21T04:54:06.325Z,-1.8
2023-01-21T04:55:05.726Z,-1.8
2023-01-21T04:56:06.188Z,-1.9
2023-01-21T04:57:06.453Z,-1.9
2023-01-21T04:58:05.795Z,-1.9
2023-01-21T04:59:06.343Z,-1.9
2023-01-21T05:00:05.614Z,-1.9
2023-01-21T05:01:06.696Z,-1.9
2023-01-21T05:02:06.032Z,-1.9
2023-01-21T05:03:06.416Z,-1.9
2023-01-21T05:04:05.814Z,-1.9
2023-01-21T05:05:06.045Z,-1.9
2023-01-21T05:06:06.562Z,-1.9
2023-01-21T05:07:06.116Z,-1.9
2023-01-21T05:08:06.485Z,-2
2023-01-21T05:09:05.804Z,-1.9
2023-01-21T05:10:06.239Z,-1.9
2023-01-21T05:11:06.640Z,-2
2023-01-21T05:12:06.111Z,-2
2023-01-21T05:13:06.430Z,-2
2023-01-21T05:14:06.051Z,-2
2023-01-21T05:15:06.733Z,-2
2023-01-21T05:16:06.646Z,-2
2023-01-21T05:17:06.092Z,-2
2023-01-21T05:18:06.487Z,-2
2023-01-21T05:19:05.799Z,-2
2023-01-21T05:20:06.296Z,-3
2023-01-21T05:21:05.969Z,-2
2023-01-21T05:22:06.338Z,-2
2023-01-21T05:23:05.699Z,-2
2023-01-21T05:24:06.199Z,-2
2023-01-21T05:25:06.843Z,-3
2023-01-21T05:26:05.833Z,-3
2023-01-21T05:27:06.229Z,-3
2023-01-21T05:28:05.726Z,-3
2023-01-21T05:29:06.503Z,-3
2023-01-21T05:30:05.938Z,-2
2023-01-21T05:31:06.820Z,-2
2023-01-21T05:32:06.902Z,-2
2023-01-21T05:33:06.380Z,-2
2023-01-21T05:34:05.840Z,-2
2023-01-21T05:35:06.210Z,-2
2023-01-21T05:36:06.533Z,-2.1
2023-01-21T05:37:05.923Z,-2.1
2023-01-21T05:38:06.506Z,-2.1
2023-01-21T05:39:06.141Z,-2.1
2023-01-21T05:40:06.404Z,-2.1
2023-01-21T05:41:05.814Z,-2.1
2023-01-21T05:42:06.202Z,-2.1
2023-01-21T05:43:06.575Z,-2.1
2023-01-21T05:44:06.008Z,-2.1
2023-01-21T05:45:06.474Z,-2.1
2023-01-21T05:46:05.813Z,-2.1
2023-01-21T05:47:06.263Z,-2.1
2023-01-21T05:48:05.617Z,-2.2
2023-01-21T05:49:06.014Z,-2.2
2023-01-21T05:50:06.595Z,-2.2
2023-01-21T05:51:06.013Z,-3
2023-01-21T05:52:06.278Z,-2.2
2023-01-21T05:53:05.812Z,-2.2
2023-01-21T05:54:06.099Z,-2.2
2023-01-21T05:55:07.309Z,-2.2
2023-01-21T05:56:06.021Z,-2.2
2023-01-21T05:57:06.514Z,-2.2
2023-01-21T05:58:05.959Z,-2.3
2023-01-21T05:59:06.404Z,-2.3
2023-01-21T06:00:05.871Z,-2.2
2023-01-21T06:01:05.506Z,-2.3
2023-01-21T06:02:05.987Z,-2.3
2023-01-21T06:03:06.452Z,-2.3
2023-01-21T06:04:05.761Z,-2.3
2023-01-21T06:05:06.361Z,-2.3
2023-01-21T06:06:05.786Z,-2.3
2023-01-21T06:07:06.203Z,-2.3
2023-01-21T06:08:05.777Z,-2.3
2023-01-21T06:09:05.981Z,-2.3
2023-01-21T06:10:06.532Z,-2.3
2023-01-21T06:11:05.796Z,-2.4
2023-01-21T06:12:05.939Z,-3
2023-01-21T06:13:06.214Z,-2.3
2023-01-21T06:14:05.710Z,-2.3
2023-01-21T06:15:06.091Z,-3
2023-01-21T06:16:06.448Z,-2.3
2023-01-21T06:17:06.015Z,-2.3
2023-01-21T06:18:06.400Z,-2.3
2023-01-21T06:19:05.771Z,-2.3
2023-01-21T06:20:06.323Z,-2.3
2023-01-21T06:21:05.692Z,-2.3
2023-01-21T06:22:06.166Z,-2.3
2023-01-21T06:23:06.665Z,-2.3
2023-01-21T06:24:05.794Z,-2.2
2023-01-21T06:25:06.426Z,-2.2
2023-01-21T06:26:05.653Z,-2.3
2023-01-21T06:27:06.199Z,-2.3
2023-01-21T06:28:06.423Z,-2.3
2023-01-21T06:29:05.966Z,-2.3
2023-01-21T06:30:06.444Z,-2.3
2023-01-21T06:31:06.142Z,-2.3
2023-01-21T06:32:06.722Z,-2.3
2023-01-21T06:33:06.663Z,-2.3
2023-01-21T06:34:05.972Z,-3
2023-01-21T06:35:06.527Z,-3
2023-01-21T06:36:05.909Z,-3
2023-01-21T06:37:06.241Z,-2.3
2023-01-21T06:38:05.714Z,-2.3
2023-01-21T06:39:06.124Z,-2.3
2023-01-21T06:40:06.687Z,-2.3
2023-01-21T06:41:05.995Z,-2.3
2023-01-21T06:42:06.562Z,-2.4
2023-01-21T06:43:05.785Z,-2.4
2023-01-21T06:44:06.321Z,-2.4
2023-01-21T06:45:05.836Z,-2.4
2023-01-21T06:46:06.366Z,-2.3
2023-01-21T06:47:06.860Z,-2.4
2023-01-21T06:48:06.121Z,-2.4
2023-01-21T06:49:06.394Z,-2.4
2023-01-21T06:50:05.912Z,-2.3
2023-01-21T06:51:06.460Z,-2.3
2023-01-21T06:52:05.779Z,-2.3
2023-01-21T06:53:06.226Z,-2.3
2023-01-21T06:54:06.466Z,-2.3
2023-01-21T06:55:06.114Z,-2.3
2023-01-21T06:56:06.631Z,-2.3
2023-01-21T06:57:05.845Z,-2.3
2023-01-21T06:58:06.375Z,-2.3
2023-01-21T06:59:05.879Z,-2.3
2023-01-21T07:00:06.204Z,-2.3
2023-01-21T07:01:05.901Z,-3
2023-01-21T07:02:06.449Z,-3
2023-01-21T07:03:06.169Z,-2.3
2023-01-21T07:04:06.465Z,-2.3
2023-01-21T07:05:05.952Z,-2.2
2023-01-21T07:06:06.274Z,-2.2
2023-01-21T07:07:06.717Z,-2.2
2023-01-21T07:08:06.182Z,-2.2
2023-01-21T07:09:06.651Z,-2.2
2023-01-21T07:10:06.057Z,-2.2
2023-01-21T07:11:06.477Z,-2.2
2023-01-21T07:12:05.945Z,-2.2
2023-01-21T07:13:06.013Z,-2.2
2023-01-21T07:14:06.237Z,-3
2023-01-21T07:15:06.591Z,-3
2023-01-21T07:16:08.969Z,-2.2
2023-01-21T07:17:06.428Z,-2.2
2023-01-21T07:18:05.548Z,-2.1
2023-01-21T07:19:06.035Z,-2.1
2023-01-21T07:20:06.527Z,-2.1
2023-01-21T07:21:05.890Z,-2.1
2023-01-21T07:22:06.333Z,-2.1
2023-01-21T07:23:05.953Z,-2
2023-01-21T07:24:06.165Z,-2
2023-01-21T07:25:05.738Z,-2
2023-01-21T07:26:06.101Z,-2
2023-01-21T07:27:06.679Z,-2
2023-01-21T07:28:06.073Z,-2
2023-01-21T07:29:06.321Z,-2
2023-01-21T07:30:06.106Z,-2
2023-01-21T07:31:06.604Z,-2
2023-01-21T07:32:06.040Z,-2
2023-01-21T07:33:06.268Z,-2
2023-01-21T07:34:05.790Z,-2
2023-01-21T07:35:06.172Z,-1.9
2023-01-21T07:36:05.732Z,-2
2023-01-21T07:37:05.996Z,-2
2023-01-21T07:38:06.443Z,-2
2023-01-21T07:39:05.919Z,-2
2023-01-21T07:40:06.387Z,-1.9
2023-01-21T07:41:05.945Z,-1.8
2023-01-21T07:42:06.342Z,-1.9
2023-01-21T07:43:05.887Z,-1.8
2023-01-21T07:44:06.260Z,-1.9
2023-01-21T07:45:06.468Z,-2
2023-01-21T07:46:06.449Z,-2
2023-01-21T07:47:06.033Z,-2
2023-01-21T07:48:06.175Z,-1.8
2023-01-21T07:49:06.769Z,-1.7
2023-01-21T07:50:06.145Z,-1.7
2023-01-21T07:51:06.610Z,-1.7
2023-01-21T07:52:06.020Z,-1.7
2023-01-21T07:53:06.429Z,-1.7
2023-01-21T07:54:05.742Z,-1.7
2023-01-21T07:55:06.245Z,-1.6
2023-01-21T07:56:05.722Z,-1.7
2023-01-21T07:57:06.032Z,-1.6
2023-01-21T07:58:06.480Z,-1.6
2023-01-21T07:59:05.757Z,-1.6
2023-01-21T08:00:06.266Z,-1.6
2023-01-21T08:01:06.338Z,-2
2023-01-21T08:02:06.466Z,-1.6
2023-01-21T08:03:06.244Z,-1.6
2023-01-21T08:04:05.765Z,-1.6
2023-01-21T08:05:06.228Z,-1.6
2023-01-21T08:06:05.851Z,-1.6
2023-01-21T08:07:06.164Z,-1.6
2023-01-21T08:08:06.409Z,-1.5
2023-01-21T08:09:06.018Z,-1.5
2023-01-21T08:10:06.346Z,-1.5
2023-01-21T08:11:05.800Z,-1.5
2023-01-21T08:12:06.034Z,-2
2023-01-21T08:13:06.487Z,-1.5
2023-01-21T08:14:05.956Z,-1.5
2023-01-21T08:15:06.594Z,-1.4
2023-01-21T08:16:06.810Z,-1.5
2023-01-21T08:17:06.091Z,-1.5
2023-01-21T08:18:05.760Z,-1.4
2023-01-21T08:19:06.141Z,-1.4
2023-01-21T08:20:06.511Z,-2
2023-01-21T08:21:05.995Z,-1.4
2023-01-21T08:22:06.421Z,-1.3
2023-01-21T08:23:05.731Z,-2
2023-01-21T08:24:06.146Z,-2
2023-01-21T08:25:06.629Z,-1.3
2023-01-21T08:26:06.119Z,-1.3
2023-01-21T08:27:06.594Z,-1.2
2023-01-21T08:28:06.022Z,-1.2
2023-01-21T08:29:06.385Z,-1.2
2023-01-21T08:30:05.799Z,-1.2
2023-01-21T08:31:06.274Z,-1.2
2023-01-21T08:32:06.313Z,-2
2023-01-21T08:33:08.486Z,-1
2023-01-21T08:34:06.396Z,-1.1
2023-01-21T08:35:05.732Z,-1.1
2023-01-21T08:36:06.282Z,-1.1
2023-01-21T08:37:06.737Z,-1.1
2023-01-21T08:38:06.210Z,-1.1
2023-01-21T08:39:05.670Z,-1.1
2023-01-21T08:40:06.147Z,-1.1
2023-01-21T08:41:06.463Z,-1.1
2023-01-21T08:42:05.875Z,-1
2023-01-21T08:43:06.250Z,-1
2023-01-21T08:44:05.740Z,-1
2023-01-21T08:45:06.233Z,-0.9
2023-01-21T08:46:05.811Z,-1
2023-01-21T08:47:06.066Z,-1
2023-01-21T08:48:05.767Z,-0.9
2023-01-21T08:49:06.117Z,-0.9
2023-01-21T08:50:06.591Z,-0.9
2023-01-21T08:51:06.132Z,-0.9
2023-01-21T08:52:06.454Z,-0.9
2023-01-21T08:53:05.741Z,-0.8
2023-01-21T08:54:06.274Z,-0.8
2023-01-21T08:55:06.628Z,-0.8
2023-01-21T08:56:06.106Z,-1
2023-01-21T08:57:06.514Z,-0.8
2023-01-21T08:58:06.086Z,-0.8
2023-01-21T08:59:06.519Z,-0.8
2023-01-21T09:00:05.983Z,-0.8
2023-01-21T09:01:06.338Z,-0.8
2023-01-21T09:02:06.785Z,-0.8
2023-01-21T09:03:06.079Z,-0.8
2023-01-21T09:04:05.527Z,-0.7
2023-01-21T09:05:06.360Z,-0.7
2023-01-21T09:06:06.684Z,-0.7
2023-01-21T09:07:06.190Z,-0.8
2023-01-21T09:08:06.593Z,-0.8
2023-01-21T09:09:05.770Z,-0.8
2023-01-21T09:10:06.243Z,-0.8
2023-01-21T09:11:05.916Z,-0.8
2023-01-21T09:12:06.177Z,-0.8
2023-01-21T09:13:06.593Z,-0.8
2023-01-21T09:14:06.343Z,-0.8
2023-01-21T09:15:06.699Z,-0.7
2023-01-21T09:16:06.146Z,-0.8
2023-01-21T09:17:06.625Z,-0.8
2023-01-21T09:18:05.752Z,-0.8
2023-01-21T09:19:06.285Z,-1
2023-01-21T09:20:05.661Z,-0.7
2023-01-21T09:21:06.337Z,-0.7
2023-01-21T09:22:05.730Z,-0.7
2023-01-21T09:23:06.111Z,-0.7
2023-01-21T09:24:06.646Z,-1
2023-01-21T09:25:05.901Z,-1
2023-01-21T09:26:06.534Z,-0.6
2023-01-21T09:27:05.972Z,-0.6
2023-01-21T09:28:06.347Z,-0.6
2023-01-21T09:29:05.626Z,-0.6
2023-01-21T09:30:06.142Z,-0.6
2023-01-21T09:31:06.329Z,-0.5
2023-01-21T09:32:06.824Z,-0.6
2023-01-21T09:33:06.059Z,-0.6
2023-01-21T09:34:06.567Z,-0.6
2023-01-21T09:35:05.922Z,-0.6
2023-01-21T09:36:06.453Z,-0.5
2023-01-21T09:37:05.911Z,-0.5
2023-01-21T09:38:04.746Z,-0.5
2023-01-21T09:39:06.078Z,-0.5
2023-01-21T09:40:06.556Z,-0.5
2023-01-21T09:41:05.861Z,-0.4
2023-01-21T09:42:06.447Z,-0.4
2023-01-21T09:43:05.846Z,-0.4
2023-01-21T09:44:06.321Z,-0.4
2023-01-21T09:45:05.627Z,-0.4
2023-01-21T09:46:08.435Z,-0.4
2023-01-21T09:47:06.530Z,-0.4
2023-01-21T09:48:05.840Z,-0.4
2023-01-21T09:49:06.343Z,-0.4
2023-01-21T09:50:06.611Z,-0.4
2023-01-21T09:51:06.435Z,-0.4
2023-01-21T09:52:05.606Z,-0.4
2023-01-21T09:53:06.229Z,-0.4
2023-01-21T09:54:06.383Z,-0.4
2023-01-21T09:55:06.040Z,-0.3
2023-01-21T09:56:06.544Z,-0.3
2023-01-21T09:57:05.870Z,-0.4
2023-01-21T09:58:06.342Z,-1
2023-01-21T09:59:05.708Z,-0.3
2023-01-21T10:00:06.303Z,-0.3
2023-01-21T10:01:06.472Z,-0.3
2023-01-21T10:02:05.596Z,-0.3
2023-01-21T10:03:06.107Z,-1
2023-01-21T10:04:06.556Z,-0.3
2023-01-21T10:05:05.990Z,-0.3
2023-01-21T10:06:06.380Z,-1
2023-01-21T10:07:05.586Z,-0.4
2023-01-21T10:08:06.319Z,-0.4
2023-01-21T10:09:05.686Z,-0.4
2023-01-21T10:10:06.380Z,-1
2023-01-21T10:11:05.801Z,-1
2023-01-21T10:12:06.100Z,-0.2
2023-01-21T10:13:05.511Z,-0.3
2023-01-21T10:14:05.803Z,-0.3
2023-01-21T10:15:06.208Z,-0.3
2023-01-21T10:16:06.244Z,-0.2
2023-01-21T10:17:05.776Z,-0.2
2023-01-21T10:18:06.294Z,-0.2
2023-01-21T10:19:05.600Z,-1
2023-01-21T10:20:06.046Z,-0.1
2023-01-21T10:21:06.644Z,-0.1
2023-01-21T10:22:05.932Z,0
2023-01-21T10:23:06.281Z,0
2023-01-21T10:24:05.992Z,0
2023-01-21T10:25:06.498Z,0
2023-01-21T10:26:05.796Z,0
2023-01-21T10:27:06.296Z,0
2023-01-21T10:28:05.786Z,0
2023-01-21T10:29:06.054Z,0
2023-01-21T10:30:08.701Z,0
2023-01-21T10:31:06.300Z,0
2023-01-21T10:32:06.320Z,0
2023-01-21T10:33:05.983Z,0
2023-01-21T10:34:06.298Z,-0.1
2023-01-21T10:35:05.607Z,-0.1
2023-01-21T10:36:06.044Z,0
2023-01-21T10:37:06.528Z,-0.1
2023-01-21T10:38:05.934Z,-0.1
2023-01-21T10:39:06.677Z,-0.1
2023-01-21T10:40:06.445Z,0
2023-01-21T10:41:06.458Z,0
2023-01-21T10:42:06.172Z,-0.1
2023-01-21T10:43:06.617Z,0
2023-01-21T10:44:05.965Z,0
2023-01-21T10:45:06.518Z,0
2023-01-21T10:46:06.554Z,0
2023-01-21T10:47:05.863Z,0
2023-01-21T10:48:06.387Z,0
2023-01-21T10:49:05.568Z,0
2023-01-21T10:50:06.032Z,0
2023-01-21T10:51:06.722Z,0
2023-01-21T10:52:05.975Z,0
2023-01-21T10:53:06.447Z,0
2023-01-21T10:54:05.902Z,0
2023-01-21T10:55:06.200Z,0
2023-01-21T10:56:06.743Z,0
2023-01-21T10:57:05.901Z,0
2023-01-21T10:58:06.359Z,0
2023-01-21T10:59:05.908Z,0.1
2023-01-21T11:00:06.346Z,0.1
2023-01-21T11:01:06.152Z,0.1
2023-01-21T11:02:06.491Z,0.1
2023-01-21T11:03:05.930Z,0.2
2023-01-21T11:04:06.232Z,0.2
2023-01-21T11:05:05.754Z,0.1
2023-01-21T11:06:06.325Z,0.1
2023-01-21T11:07:06.656Z,0.1
2023-01-21T11:08:06.124Z,0
2023-01-21T11:09:06.693Z,0
2023-01-21T11:10:05.975Z,0.2
2023-01-21T11:11:06.623Z,0.2
2023-01-21T11:12:06.002Z,0.2
2023-01-21T11:13:06.512Z,0.2
2023-01-21T11:14:06.152Z,0.1
2023-01-21T11:15:06.706Z,0.1
2023-01-21T11:16:06.583Z,0.1
2023-01-21T11:17:05.891Z,0.2
2023-01-21T11:18:06.293Z,0.2
2023-01-21T11:19:06.737Z,0.2
2023-01-21T11:20:06.051Z,0.1
2023-01-21T11:21:06.618Z,0.1
2023-01-21T11:22:06.148Z,0.1
2023-01-21T11:23:06.557Z,0
2023-01-21T11:24:05.940Z,0
2023-01-21T11:25:06.381Z,0.1
2023-01-21T11:26:05.854Z,0.1
2023-01-21T11:27:06.410Z,0.1
2023-01-21T11:28:05.807Z,0.1
2023-01-21T11:29:08.964Z,0.1
2023-01-21T11:30:31.604Z,0.1
2023-01-21T11:31:06.193Z,0.1
2023-01-21T11:32:06.856Z,0
2023-01-21T11:33:05.690Z,0.1
2023-01-21T11:34:06.283Z,0.2
2023-01-21T11:35:05.695Z,0.1
2023-01-21T11:36:05.931Z,0.2
2023-01-21T11:37:06.457Z,0.2
2023-01-21T11:38:05.901Z,0.2
2023-01-21T11:39:06.234Z,0.2
2023-01-21T11:40:05.835Z,-1
2023-01-21T11:41:06.168Z,-1
2023-01-21T11:42:06.691Z,0.2
2023-01-21T11:43:06.045Z,0.2
2023-01-21T11:44:06.311Z,0.1
2023-01-21T11:45:05.762Z,0.1
2023-01-21T11:46:06.053Z,0.2
2023-01-21T11:47:06.675Z,0.2
2023-01-21T11:48:05.983Z,0.2
2023-01-21T11:49:06.603Z,0.3
2023-01-21T11:50:06.120Z,0.3
2023-01-21T11:51:06.655Z,0.2
2023-01-21T11:52:06.110Z,0
2023-01-21T11:53:06.429Z,0.2
2023-01-21T11:54:06.003Z,0
2023-01-21T11:55:06.410Z,0
2023-01-21T11:56:05.743Z,0
2023-01-21T11:57:06.190Z,0.2
2023-01-21T11:58:06.513Z,0.3
2023-01-21T11:59:05.889Z,0.4
2023-01-21T12:00:06.345Z,0.3
2023-01-21T12:01:06.440Z,0.3
2023-01-21T12:02:05.941Z,0.4
2023-01-21T12:03:06.422Z,0.4
2023-01-21T12:04:05.946Z,0.4
2023-01-21T12:05:06.175Z,0.4
2023-01-21T12:06:05.783Z,0.4
2023-01-21T12:07:06.209Z,0.4
2023-01-21T12:08:06.495Z,0.4
2023-01-21T12:09:06.077Z,0.4
2023-01-21T12:10:06.606Z,0.4
2023-01-21T12:11:06.110Z,0.4
2023-01-21T12:12:06.351Z,0.4
2023-01-21T12:13:05.709Z,0.4
2023-01-21T12:14:05.967Z,0.4
2023-01-21T12:15:06.575Z,0
2023-01-21T12:16:05.999Z,0.4
2023-01-21T12:17:06.124Z,0.4
2023-01-21T12:18:05.705Z,0.4
2023-01-21T12:19:06.051Z,0
2023-01-21T12:20:06.545Z,0.4
2023-01-21T12:21:06.038Z,0.6
2023-01-21T12:22:06.574Z,0.6
2023-01-21T12:23:06.015Z,0.6
2023-01-21T12:24:05.508Z,0.6
2023-01-21T12:25:05.918Z,0.6
2023-01-21T12:26:06.235Z,0.6
2023-01-21T12:27:05.814Z,0.6
2023-01-21T12:28:06.350Z,0.6
2023-01-21T12:30:06.424Z,0.6
2023-01-21T12:31:06.921Z,0.6
2023-01-21T12:32:06.095Z,0.6
2023-01-21T12:33:06.244Z,0.6
2023-01-21T12:34:05.769Z,0.6
2023-01-21T12:35:06.110Z,0.6
2023-01-21T12:36:06.578Z,0.6
2023-01-21T12:37:06.002Z,0.6
2023-01-21T12:38:05.844Z,0
2023-01-21T12:39:06.191Z,0
2023-01-21T12:40:05.830Z,0.6
2023-01-21T12:41:06.037Z,0.6
2023-01-21T12:42:06.505Z,0
2023-01-21T12:43:05.965Z,0.7
2023-01-21T12:44:06.350Z,0.7
2023-01-21T12:45:05.789Z,0.7
2023-01-21T12:46:06.018Z,0.6
2023-01-21T12:47:06.333Z,0.6
2023-01-21T12:48:05.805Z,0.6
2023-01-21T12:49:06.520Z,0.6
2023-01-21T12:50:06.506Z,0.6
2023-01-21T12:51:06.157Z,0.6
2023-01-21T12:52:06.417Z,0.6
2023-01-21T12:53:05.741Z,0.6
2023-01-21T12:54:06.519Z,0
2023-01-21T12:55:05.698Z,0.5
2023-01-21T12:56:06.223Z,0.5
2023-01-21T12:57:06.662Z,0.5
2023-01-21T12:58:05.953Z,0.4
2023-01-21T12:59:06.510Z,0.4
2023-01-21T13:00:05.860Z,0.4
2023-01-21T13:01:06.333Z,0.4
2023-01-21T13:02:06.541Z,0
2023-01-21T13:03:05.857Z,0
2023-01-21T13:04:06.327Z,0.4
2023-01-21T13:05:05.740Z,0.4
2023-01-21T13:06:06.327Z,0
2023-01-21T13:07:05.746Z,0.4
2023-01-21T13:08:06.127Z,0.4
2023-01-21T13:09:06.580Z,0.4
2023-01-21T13:10:06.092Z,0.4
2023-01-21T13:11:06.363Z,0.4
2023-01-21T13:12:05.929Z,0.4
2023-01-21T13:13:06.387Z,0.4
2023-01-21T13:14:05.897Z,0.4
2023-01-21T13:15:06.259Z,0.4
2023-01-21T13:16:06.360Z,0.3
2023-01-21T13:17:06.338Z,0.4
2023-01-21T13:18:05.789Z,0.4
2023-01-21T13:19:06.344Z,0.3
2023-01-21T13:20:05.867Z,0.3
2023-01-21T13:21:06.382Z,0
2023-01-21T13:22:05.740Z,0.2
2023-01-21T13:23:06.221Z,0.2
2023-01-21T13:24:05.745Z,0.2
2023-01-21T13:25:06.207Z,0
2023-01-21T13:26:06.586Z,0.2
2023-01-21T13:27:06.171Z,0.2
2023-01-21T13:28:06.556Z,0.2
2023-01-21T13:29:06.024Z,0.2
2023-01-21T13:30:06.488Z,0
2023-01-21T13:31:06.255Z,0.2
2023-01-21T13:32:06.566Z,0.2
2023-01-21T13:33:05.977Z,0.1
2023-01-21T13:34:06.430Z,0.2
2023-01-21T13:35:05.999Z,0.2
2023-01-21T13:36:06.345Z,0.1
2023-01-21T13:37:05.899Z,0.1
2023-01-21T13:38:06.169Z,0.1
2023-01-21T13:39:05.635Z,0.1
2023-01-21T13:40:06.072Z,0.1
2023-01-21T13:41:06.470Z,0